Time;durP1;ratioP1;P1;durP2;ratioP2;P2;SDS_P1;SDS_P2;PMS_P1;PMS_P2;Temp;Humidity;BMP_temperature;BMP_pressure;BME280_temperature;BME280_humidity;BME280_pressure;Samples;Min_cycle;Max_cycle;Signal;HPM_P1;HPM_P2
2022/04/24 00:00:27;;;;;;;2.63;1.90;;;18.50;47.80;;;;;;5073970;28;20173;-86
2022/04/24 00:02:53;;;;;;;2.05;1.63;;;18.50;47.90;;;;;;5057240;28;20646;-85
2022/04/24 00:05:19;;;;;;;2.78;1.60;;;18.50;47.90;;;;;;5074054;28;20507;-85
2022/04/24 00:07:45;;;;;;;2.92;1.80;;;18.50;47.90;;;;;;5057107;28;20192;-84
2022/04/24 00:10:11;;;;;;;2.10;1.83;;;18.50;48.00;;;;;;5073488;28;20154;-85
2022/04/24 00:12:37;;;;;;;1.95;1.58;;;18.50;48.00;;;;;;5073840;28;20153;-85
2022/04/24 00:15:03;;;;;;;3.58;1.80;;;18.50;48.00;;;;;;5056920;28;20208;-85
2022/04/24 00:17:29;;;;;;;1.95;1.75;;;18.50;48.10;;;;;;5074854;28;20183;-85
2022/04/24 00:19:54;;;;;;;2.72;1.55;;;18.50;47.70;;;;;;5074046;28;20240;-84
2022/04/24 00:22:24;;;;;;;2.65;1.52;;;18.50;47.80;;;;;;5057046;28;20584;-83
2022/04/24 00:24:50;;;;;;;2.35;1.92;;;18.50;48.00;;;;;;5039552;28;20640;-84
2022/04/24 00:27:16;;;;;;;2.55;1.80;;;18.50;47.90;;;;;;5056994;28;20256;-84
2022/04/24 00:29:43;;;;;;;1.95;1.75;;;18.50;47.90;;;;;;5074776;28;20745;-84
2022/04/24 00:32:09;;;;;;;2.20;1.98;;;18.50;47.90;;;;;;5073462;28;20207;-85
2022/04/24 00:34:35;;;;;;;1.75;1.60;;;18.50;47.90;;;;;;5073370;28;20634;-85
2022/04/24 00:37:01;;;;;;;4.07;2.10;;;18.50;48.00;;;;;;5056549;28;20250;-84
2022/04/24 00:39:27;;;;;;;2.00;1.63;;;18.50;47.90;;;;;;5073382;28;20185;-83
2022/04/24 00:41:53;;;;;;;2.17;1.98;;;18.40;47.80;;;;;;5073242;28;20153;-85
2022/04/24 00:44:19;;;;;;;2.17;1.38;;;18.60;47.90;;;;;;5073232;28;20200;-85
2022/04/24 00:47:00;;;;;;;2.35;1.83;;;18.50;48.00;;;;;;5056495;28;20666;-85
2022/04/24 00:49:26;;;;;;;3.53;1.80;;;18.40;48.10;;;;;;5073062;28;20535;-85
2022/04/24 00:51:53;;;;;;;2.25;1.70;;;18.50;48.00;;;;;;5072852;28;20216;-84
2022/04/24 00:54:19;;;;;;;2.28;1.60;;;18.50;48.00;;;;;;5072893;28;20639;-85
2022/04/24 00:56:45;;;;;;;2.20;1.70;;;18.50;48.00;;;;;;5072949;28;20173;-83
2022/04/24 00:59:12;;;;;;;2.42;1.60;;;18.50;48.00;;;;;;5074189;28;20153;-85
2022/04/24 01:01:38;;;;;;;2.13;1.80;;;18.50;48.10;;;;;;5074040;28;20150;-86
2022/04/24 01:04:05;;;;;;;1.95;1.50;;;18.50;48.10;;;;;;5056046;28;20173;-84
2022/04/24 01:06:34;;;;;;;1.80;1.70;;;18.50;48.20;;;;;;5056060;28;20352;-83
2022/04/24 01:09:14;;;;;;;2.65;1.88;;;18.50;48.10;;;;;;5055941;28;20177;-83
2022/04/24 01:11:41;;;;;;;2.50;1.80;;;18.40;47.90;;;;;;5072748;28;20207;-84
2022/04/24 01:14:06;;;;;;;1.77;1.67;;;18.50;48.10;;;;;;5055890;28;20197;-85
2022/04/24 01:16:33;;;;;;;2.20;1.50;;;18.50;47.80;;;;;;5056110;28;20256;-85
2022/04/24 01:18:59;;;;;;;1.98;1.50;;;18.50;48.20;;;;;;5072801;28;20207;-84
2022/04/24 01:21:25;;;;;;;3.50;1.70;;;18.50;48.00;;;;;;5055425;28;20169;-84
2022/04/24 01:23:51;;;;;;;2.05;1.73;;;18.50;48.10;;;;;;5072080;28;20741;-84
2022/04/24 01:26:16;;;;;;;2.20;1.90;;;18.50;48.20;;;;;;5072384;28;20517;-84
2022/04/24 01:28:42;;;;;;;1.65;1.50;;;18.40;48.10;;;;;;5072574;28;20634;-85
2022/04/24 01:31:08;;;;;;;2.25;1.73;;;18.40;48.20;;;;;;5055718;28;20640;-85
2022/04/24 01:33:34;;;;;;;2.03;1.65;;;18.50;48.20;;;;;;5055501;28;20192;-84
2022/04/24 01:36:00;;;;;;;3.90;1.90;;;18.40;48.20;;;;;;5072157;28;20196;-84
2022/04/24 01:38:28;;;;;;;1.90;1.70;;;18.50;48.30;;;;;;5072227;28;20244;-85
2022/04/24 01:40:54;;;;;;;1.98;1.73;;;18.40;48.20;;;;;;5072323;28;20184;-85
2022/04/24 01:43:20;;;;;;;2.20;1.60;;;18.40;48.10;;;;;;5072172;28;20149;-84
2022/04/24 01:45:46;;;;;;;2.25;1.83;;;18.50;48.10;;;;;;5072317;28;20604;-85
2022/04/24 01:48:12;;;;;;;2.10;1.67;;;18.50;48.30;;;;;;5055336;28;20174;-84
2022/04/24 01:50:38;;;;;;;2.58;1.83;;;18.40;48.20;;;;;;5071804;28;20577;-84
2022/04/24 01:53:03;;;;;;;2.00;1.70;;;18.30;48.40;;;;;;5055664;28;20181;-83
2022/04/24 01:55:30;;;;;;;1.65;1.55;;;18.40;48.40;;;;;;5055137;28;20193;-84
2022/04/24 01:57:56;;;;;;;1.70;1.60;;;18.40;48.30;;;;;;5055270;28;20689;-84
2022/04/24 02:00:22;;;;;;;1.95;1.75;;;18.40;48.20;;;;;;5073529;28;20211;-85
2022/04/24 02:02:48;;;;;;;2.60;1.73;;;18.40;48.20;;;;;;5073078;28;20172;-84
2022/04/24 02:05:14;;;;;;;2.03;1.80;;;18.40;48.20;;;;;;5072062;28;20154;-84
2022/04/24 02:07:40;;;;;;;1.73;1.60;;;18.40;48.40;;;;;;5072033;28;20165;-84
2022/04/24 02:10:06;;;;;;;1.77;1.60;;;18.40;48.30;;;;;;5054995;28;20169;-84
2022/04/24 02:12:32;;;;;;;2.60;1.60;;;18.40;48.30;;;;;;5072117;28;20686;-85
2022/04/24 02:14:58;;;;;;;2.38;1.83;;;18.40;48.30;;;;;;5055022;28;20570;-84
2022/04/24 02:17:24;;;;;;;1.60;1.33;;;18.40;48.30;;;;;;5073290;28;20162;-84
2022/04/24 02:19:49;;;;;;;2.42;1.98;;;18.40;48.40;;;;;;5071810;28;20274;-84
2022/04/24 02:22:15;;;;;;;2.10;1.80;;;18.30;48.30;;;;;;5072977;28;20612;-84
2022/04/24 02:24:41;;;;;;;1.60;1.50;;;18.40;48.40;;;;;;5073122;28;20576;-83
2022/04/24 02:27:07;;;;;;;1.65;1.55;;;18.40;48.30;;;;;;5054971;28;20165;-84
2022/04/24 02:29:33;;;;;;;1.60;1.50;;;18.40;48.30;;;;;;5071779;28;20199;-83
2022/04/24 02:31:59;;;;;;;1.80;1.40;;;18.40;48.40;;;;;;5054941;28;20165;-84
2022/04/24 02:34:26;;;;;;;2.33;1.70;;;18.40;48.50;;;;;;5075034;28;20271;-84
2022/04/24 02:36:52;;;;;;;2.15;1.63;;;18.40;48.40;;;;;;5059024;28;20170;-84
2022/04/24 02:39:19;;;;;;;1.80;1.40;;;18.40;48.30;;;;;;5059363;28;20165;-84
2022/04/24 02:41:45;;;;;;;2.42;1.88;;;18.40;48.50;;;;;;5059581;28;20169;-84
2022/04/24 02:44:10;;;;;;;2.05;1.80;;;18.30;48.30;;;;;;5058811;28;20223;-85
2022/04/24 02:46:37;;;;;;;1.40;1.27;;;18.40;48.30;;;;;;5058599;28;20173;-84
2022/04/24 02:49:03;;;;;;;1.95;1.70;;;18.30;48.40;;;;;;5075387;28;20169;-85
2022/04/24 02:51:28;;;;;;;2.35;1.60;;;18.40;48.40;;;;;;5058426;28;20259;-84
2022/04/24 02:53:54;;;;;;;2.08;1.85;;;18.30;48.40;;;;;;5075232;28;20239;-84
2022/04/24 02:56:20;;;;;;;1.67;1.58;;;18.40;48.50;;;;;;5075551;28;20161;-84
2022/04/24 02:58:46;;;;;;;2.47;1.70;;;18.30;48.50;;;;;;5075106;28;20153;-85
2022/04/24 03:01:12;;;;;;;2.58;1.77;;;18.30;48.50;;;;;;5075097;28;20185;-85
2022/04/24 03:03:38;;;;;;;2.03;1.70;;;18.30;48.40;;;;;;5058674;28;20212;-85
2022/04/24 03:06:04;;;;;;;2.13;1.60;;;18.30;48.40;;;;;;5074932;28;20177;-84
2022/04/24 03:08:31;;;;;;;2.33;1.60;;;18.30;48.50;;;;;;5075024;28;20226;-84
2022/04/24 03:10:56;;;;;;;1.92;1.67;;;18.30;48.50;;;;;;5058756;28;20169;-85
2022/04/24 03:13:22;;;;;;;1.60;1.50;;;18.30;48.30;;;;;;5058581;28;20529;-84
2022/04/24 03:15:48;;;;;;;1.95;1.75;;;18.30;48.50;;;;;;5058227;28;20681;-84
2022/04/24 03:18:14;;;;;;;2.10;1.88;;;18.30;48.60;;;;;;5058093;28;20623;-84
2022/04/24 03:20:40;;;;;;;2.40;1.70;;;18.30;48.50;;;;;;5074798;28;20167;-84
2022/04/24 03:23:06;;;;;;;2.25;1.60;;;18.40;48.60;;;;;;5058061;28;20609;-85
2022/04/24 03:25:32;;;;;;;2.97;1.55;;;18.30;48.60;;;;;;5058117;28;20248;-84
2022/04/24 03:27:58;;;;;;;1.95;1.60;;;18.30;48.50;;;;;;5074732;28;20165;-83
2022/04/24 03:30:23;;;;;;;1.70;1.60;;;18.30;48.60;;;;;;5074740;28;20168;-85
2022/04/24 03:32:49;;;;;;;2.03;1.60;;;18.30;48.70;;;;;;5074621;28;20520;-84
2022/04/24 03:35:15;;;;;;;2.05;1.75;;;18.20;48.50;;;;;;5074508;28;20234;-84
2022/04/24 03:37:43;;;;;;;1.60;1.50;;;18.30;48.50;;;;;;5074875;28;20625;-85
2022/04/24 03:40:09;;;;;;;1.70;1.58;;;18.30;48.50;;;;;;5074421;28;20539;-83
2022/04/24 03:42:35;;;;;;;2.40;1.70;;;18.30;48.60;;;;;;5057650;28;20173;-84
2022/04/24 03:45:02;;;;;;;1.60;1.50;;;18.30;48.60;;;;;;5073838;28;20161;-84
2022/04/24 03:47:27;;;;;;;1.63;1.52;;;18.30;48.60;;;;;;5074631;28;20231;-85
2022/04/24 03:49:53;;;;;;;1.98;1.45;;;18.30;48.40;;;;;;5074649;28;20682;-85
2022/04/24 03:52:19;;;;;;;1.80;1.70;;;18.30;48.50;;;;;;5057422;28;20532;-84
2022/04/24 03:54:45;;;;;;;2.42;1.75;;;18.30;48.50;;;;;;5075306;28;20197;-84
2022/04/24 03:57:11;;;;;;;3.80;1.80;;;18.30;48.60;;;;;;5074198;28;20168;-84
2022/04/24 03:59:37;;;;;;;1.85;1.67;;;18.30;48.50;;;;;;5074353;28;20157;-83
2022/04/24 04:02:03;;;;;;;1.65;1.55;;;18.20;48.50;;;;;;5074324;28;20165;-84
2022/04/24 04:04:29;;;;;;;1.98;1.67;;;18.30;48.60;;;;;;5073964;28;20161;-83
2022/04/24 04:06:55;;;;;;;1.98;1.60;;;18.30;48.50;;;;;;5074497;28;20173;-84
2022/04/24 04:09:21;;;;;;;2.28;1.65;;;18.30;48.70;;;;;;5074157;28;20279;-83
2022/04/24 04:11:47;;;;;;;1.70;1.60;;;18.30;48.70;;;;;;5073807;28;20177;-83
2022/04/24 04:14:13;;;;;;;1.92;1.50;;;18.30;48.50;;;;;;5075271;28;20247;-84
2022/04/24 04:16:38;;;;;;;1.80;1.60;;;18.40;48.60;;;;;;5074902;28;20177;-85
2022/04/24 04:19:04;;;;;;;1.60;1.50;;;18.30;48.60;;;;;;5057183;28;20628;-83
2022/04/24 04:21:30;;;;;;;2.75;1.60;;;18.30;48.70;;;;;;5073740;28;20245;-84
2022/04/24 04:23:56;;;;;;;2.05;1.80;;;18.30;48.60;;;;;;5073556;28;20176;-83
2022/04/24 04:26:22;;;;;;;2.65;1.70;;;18.30;48.60;;;;;;5073550;28;20184;-83
2022/04/24 04:28:48;;;;;;;1.70;1.48;;;18.30;48.50;;;;;;5073528;28;20168;-85
2022/04/24 04:31:14;;;;;;;2.13;1.65;;;18.30;48.50;;;;;;5073550;28;20175;-84
2022/04/24 04:33:41;;;;;;;2.45;1.60;;;18.30;48.50;;;;;;5056597;28;20165;-85
2022/04/24 04:36:07;;;;;;;2.53;1.52;;;18.30;48.30;;;;;;5073716;28;20523;-83
2022/04/24 04:38:32;;;;;;;1.75;1.60;;;18.30;48.40;;;;;;5073582;28;20196;-84
2022/04/24 04:40:58;;;;;;;1.80;1.70;;;18.40;48.50;;;;;;5074745;28;20177;-85
2022/04/24 04:43:26;;;;;;;2.35;1.65;;;18.30;48.20;;;;;;5073279;28;20223;-86
2022/04/24 04:45:52;;;;;;;2.50;1.90;;;18.40;48.20;;;;;;5057078;28;20165;-84
2022/04/24 04:48:18;;;;;;;1.88;1.45;;;18.40;48.20;;;;;;5073202;28;20153;-83
2022/04/24 04:50:44;;;;;;;2.03;1.58;;;18.40;48.10;;;;;;5072876;28;20228;-85
2022/04/24 04:53:10;;;;;;;2.20;1.95;;;18.50;48.00;;;;;;5039646;28;20173;-84
2022/04/24 04:55:36;;;;;;;2.05;1.85;;;18.50;48.10;;;;;;5072864;28;20177;-85
2022/04/24 04:58:02;;;;;;;2.05;1.55;;;18.50;48.10;;;;;;5072962;28;20164;-83
2022/04/24 05:00:28;;;;;;;1.75;1.65;;;18.50;48.20;;;;;;5074230;28;20158;-84
2022/04/24 05:02:53;;;;;;;1.70;1.60;;;18.50;48.20;;;;;;5073050;28;20154;-84
2022/04/24 05:05:20;;;;;;;2.58;1.92;;;18.50;48.00;;;;;;5073000;28;20211;-83
2022/04/24 05:07:47;;;;;;;1.75;1.60;;;18.50;48.00;;;;;;5073203;28;20237;-86
2022/04/24 05:10:13;;;;;;;2.63;1.60;;;18.50;48.00;;;;;;5055970;28;20252;-85
2022/04/24 05:12:39;;;;;;;2.00;1.60;;;18.50;48.00;;;;;;5074076;28;20189;-85
2022/04/24 05:15:06;;;;;;;1.98;1.60;;;18.50;48.00;;;;;;5055821;28;20232;-85
2022/04/24 05:17:36;;;;;;;2.20;1.63;;;18.50;48.00;;;;;;5056990;28;20524;-86
2022/04/24 05:20:04;;;;;;;1.95;1.70;;;18.50;48.30;;;;;;5056049;28;20180;-86
2022/04/24 05:22:34;;;;;;;1.90;1.42;;;18.60;48.10;;;;;;5057083;28;20241;-86
2022/04/24 05:25:05;;;;;;;1.63;1.52;;;18.50;48.10;;;;;;5072693;28;20711;-87
2022/04/24 05:27:31;;;;;;;1.55;1.45;;;18.50;48.10;;;;;;5039103;28;20189;-85
2022/04/24 05:29:58;;;;;;;1.60;1.50;;;18.50;48.20;;;;;;5073166;28;20166;-85
2022/04/24 05:32:27;;;;;;;2.13;1.92;;;18.50;48.30;;;;;;5056799;28;20165;-87
2022/04/24 05:34:53;;;;;;;2.05;1.75;;;18.40;48.90;;;;;;5055390;28;20266;-87
2022/04/24 05:37:20;;;;;;;1.75;1.63;;;18.40;48.10;;;;;;5073328;28;20154;-87
2022/04/24 05:39:45;;;;;;;3.17;1.67;;;18.50;48.30;;;;;;5057253;28;20165;-85
2022/04/24 05:42:12;;;;;;;1.50;1.40;;;18.40;48.20;;;;;;5056677;28;20168;-86
2022/04/24 05:44:38;;;;;;;2.50;1.90;;;18.40;48.40;;;;;;5073233;28;20165;-85
2022/04/24 05:47:04;;;;;;;2.38;1.70;;;18.40;48.50;;;;;;5073306;28;20627;-85
2022/04/24 05:49:30;;;;;;;2.33;1.88;;;18.40;48.60;;;;;;5058230;28;20164;-86
2022/04/24 05:52:00;;;;;;;2.35;1.63;;;18.40;48.50;;;;;;5075204;28;20181;-86
2022/04/24 05:54:30;;;;;;;2.58;1.63;;;18.40;48.90;;;;;;5057327;28;20239;-88
2022/04/24 05:57:01;;;;;;;3.63;1.70;;;18.40;49.10;;;;;;5041314;28;20181;-87
2022/04/24 05:59:27;;;;;;;2.38;1.75;;;18.40;49.10;;;;;;5057026;28;20542;-88
2022/04/24 06:01:53;;;;;;;2.55;1.90;;;18.30;49.00;;;;;;5074196;28;20165;-85
2022/04/24 06:04:18;;;;;;;1.60;1.50;;;18.40;48.90;;;;;;5056205;28;20260;-85
2022/04/24 06:06:44;;;;;;;2.45;1.70;;;18.40;48.90;;;;;;5057310;28;20345;-88
2022/04/24 06:09:10;;;;;;;1.83;1.70;;;18.40;49.00;;;;;;5057193;28;20640;-86
2022/04/24 06:11:43;;;;;;;1.77;1.60;;;18.40;48.90;;;;;;5073618;28;20174;-88
2022/04/24 06:14:09;;;;;;;1.60;1.50;;;18.40;48.90;;;;;;5056667;28;20208;-85
2022/04/24 06:16:39;;;;;;;3.40;1.85;;;18.40;48.90;;;;;;5057734;28;20659;-87
2022/04/24 06:19:05;;;;;;;2.60;1.90;;;18.40;49.00;;;;;;5054743;28;20239;-88
2022/04/24 06:21:31;;;;;;;2.13;1.60;;;18.30;49.10;;;;;;5055211;28;20279;-86
2022/04/24 06:24:03;;;;;;;1.83;1.70;;;18.30;49.20;;;;;;5055002;28;20169;-89
2022/04/24 06:26:32;;;;;;;1.80;1.65;;;18.40;49.20;;;;;;5037789;28;20177;-88
2022/04/24 06:28:58;;;;;;;1.80;1.60;;;18.30;49.10;;;;;;5054730;28;20182;-85
2022/04/24 06:31:24;;;;;;;1.63;1.52;;;18.30;49.20;;;;;;5071645;28;20172;-88
2022/04/24 06:33:50;;;;;;;1.80;1.70;;;18.30;49.00;;;;;;5055697;28;20168;-87
2022/04/24 06:36:20;;;;;;;1.70;1.60;;;18.30;48.90;;;;;;5071954;28;20612;-87
2022/04/24 06:38:49;;;;;;;1.77;1.60;;;18.40;48.70;;;;;;5037767;28;20177;-86
2022/04/24 06:41:15;;;;;;;1.90;1.50;;;18.30;48.70;;;;;;5037753;28;20188;-86
2022/04/24 06:43:41;;;;;;;1.45;1.33;;;18.30;48.70;;;;;;5055503;28;20616;-87
2022/04/24 06:46:07;;;;;;;4.75;1.70;;;18.40;48.60;;;;;;5072081;28;20700;-87
2022/04/24 06:48:33;;;;;;;1.65;1.52;;;18.30;48.80;;;;;;5054968;28;20231;-85
2022/04/24 06:50:59;;;;;;;3.47;1.95;;;18.30;48.80;;;;;;5055869;28;20672;-86
2022/04/24 06:53:28;;;;;;;1.90;1.80;;;18.30;48.90;;;;;;5073986;28;20165;-88
2022/04/24 06:55:58;;;;;;;2.35;1.60;;;18.30;48.70;;;;;;5057509;28;20192;-88
2022/04/24 06:58:25;;;;;;;3.05;1.88;;;18.30;48.50;;;;;;5043942;28;20177;-86
2022/04/24 07:00:52;;;;;;;4.15;1.50;;;18.40;48.80;;;;;;5061816;28;20588;-86
2022/04/24 07:03:21;;;;;;;2.92;1.67;;;18.30;48.80;;;;;;5061667;28;20161;-85
2022/04/24 07:05:47;;;;;;;1.70;1.60;;;18.40;48.70;;;;;;5061650;28;20176;-87
2022/04/24 07:08:13;;;;;;;1.58;1.48;;;18.40;48.60;;;;;;5079534;28;20179;-86
2022/04/24 07:10:45;;;;;;;1.77;1.67;;;18.40;48.40;;;;;;5080606;28;20211;-87
2022/04/24 07:13:14;;;;;;;2.05;1.60;;;18.40;48.00;;;;;;5045617;28;20182;-88
2022/04/24 07:15:40;;;;;;;2.25;1.73;;;18.40;48.20;;;;;;5046862;28;20217;-87
2022/04/24 07:18:07;;;;;;;1.95;1.50;;;18.50;48.40;;;;;;5077384;28;20550;-86
2022/04/24 07:20:33;;;;;;;1.85;1.63;;;18.40;48.50;;;;;;5078627;28;20154;-87
2022/04/24 07:23:05;;;;;;;2.30;1.65;;;18.40;48.50;;;;;;5063726;28;20176;-87
2022/04/24 07:25:41;;;;;;;2.10;1.60;;;18.40;48.40;;;;;;5063490;28;20185;-89
2022/04/24 07:28:07;;;;;;;2.70;1.60;;;18.40;48.50;;;;;;5046693;28;20192;-87
2022/04/24 07:30:37;;;;;;;2.00;1.80;;;18.50;48.20;;;;;;5064182;28;20169;-89
2022/04/24 07:33:09;;;;;;;1.60;1.45;;;18.40;48.10;;;;;;5062347;28;20204;-87
2022/04/24 07:35:40;;;;;;;1.73;1.50;;;18.50;48.30;;;;;;5045435;28;20233;-86
2022/04/24 07:38:09;;;;;;;2.33;1.70;;;18.40;48.40;;;;;;5062853;28;20530;-86
2022/04/24 07:40:37;;;;;;;1.60;1.50;;;18.50;48.30;;;;;;5062842;28;20268;-87
2022/04/24 07:43:04;;;;;;;2.72;1.60;;;18.50;48.10;;;;;;5063056;28;20224;-88
2022/04/24 07:45:34;;;;;;;1.73;1.50;;;18.50;48.30;;;;;;5081218;28;20153;-87
2022/04/24 07:48:06;;;;;;;1.70;1.60;;;18.50;48.20;;;;;;5063574;28;20162;-87
2022/04/24 07:50:36;;;;;;;1.73;1.58;;;18.50;48.20;;;;;;5046301;28;20213;-87
2022/04/24 07:53:03;;;;;;;1.90;1.67;;;18.50;48.10;;;;;;5063677;28;20149;-89
2022/04/24 07:55:33;;;;;;;1.60;1.38;;;18.50;47.90;;;;;;5058361;28;20287;-86
2022/04/24 07:57:59;;;;;;;3.22;1.75;;;18.50;48.00;;;;;;5073810;28;20640;-88
2022/04/24 08:00:31;;;;;;;2.58;1.42;;;18.50;47.80;;;;;;5057708;28;20278;-87
2022/04/24 08:03:00;;;;;;;1.70;1.60;;;18.50;47.90;;;;;;5074971;28;20159;-88
2022/04/24 08:05:30;;;;;;;5.13;1.60;;;18.60;47.50;;;;;;5075270;28;20188;-85
2022/04/24 08:07:58;;;;;;;1.40;1.17;;;18.60;46.60;;;;;;5061114;28;20180;-86
2022/04/24 08:10:25;;;;;;;2.10;1.65;;;18.60;47.00;;;;;;5079648;28;20605;-88
2022/04/24 08:12:57;;;;;;;5.15;1.63;;;18.70;46.50;;;;;;5081022;28;20153;-88
2022/04/24 08:15:27;;;;;;;1.48;1.38;;;18.80;46.70;;;;;;5065290;28;20570;-87
2022/04/24 08:17:53;;;;;;;4.07;1.60;;;18.70;46.80;;;;;;5045394;28;20268;-88
2022/04/24 08:20:19;;;;;;;6.45;1.40;;;18.80;46.30;;;;;;5081213;28;20624;-87
2022/04/24 08:22:47;;;;;;;2.40;1.70;;;18.90;46.00;;;;;;5066615;28;20173;-87
2022/04/24 08:25:15;;;;;;;4.35;1.65;;;18.90;46.40;;;;;;5083045;28;20164;-87
2022/04/24 08:27:41;;;;;;;7.70;1.52;;;18.90;45.70;;;;;;5082110;28;20149;-87
2022/04/24 08:30:08;;;;;;;2.17;1.63;;;19.00;45.60;;;;;;5062745;28;20599;-87
2022/04/24 08:32:34;;;;;;;5.30;1.50;;;19.00;45.20;;;;;;5081993;28;20229;-87
2022/04/24 08:35:05;;;;;;;1.85;1.40;;;19.00;45.50;;;;;;5066209;28;20226;-86
2022/04/24 08:37:31;;;;;;;1.80;1.50;;;19.00;45.20;;;;;;5064027;28;20205;-87
2022/04/24 08:40:03;;;;;;;4.07;1.50;;;19.00;46.70;;;;;;5080593;28;20149;-88
2022/04/24 08:42:33;;;;;;;3.05;1.80;;;18.90;46.00;;;;;;5064771;28;20185;-88
2022/04/24 08:44:59;;;;;;;3.53;1.90;;;19.00;45.70;;;;;;5068630;28;20204;-86
2022/04/24 08:47:29;;;;;;;5.65;1.75;;;19.00;46.10;;;;;;5082100;28;20169;-87
2022/04/24 08:49:59;;;;;;;5.57;1.52;;;19.00;45.30;;;;;;5065197;28;20243;-87
2022/04/24 08:52:31;;;;;;;2.83;1.83;;;19.00;46.20;;;;;;5051248;28;20241;-88
2022/04/24 08:55:03;;;;;;;7.75;1.67;;;19.10;46.10;;;;;;5063885;28;20242;-89
2022/04/24 08:57:39;;;;;;;3.17;1.80;;;19.00;46.00;;;;;;5062777;28;20177;-87
2022/04/24 09:00:13;;;;;;;3.67;1.80;;;19.00;46.30;;;;;;5061775;28;20194;-87
2022/04/24 09:02:42;;;;;;;5.68;1.42;;;19.00;45.90;;;;;;5046546;28;20176;-88
2022/04/24 09:05:16;;;;;;;9.00;1.70;;;19.00;46.10;;;;;;5045435;28;20248;-85
2022/04/24 09:07:46;;;;;;;5.47;2.28;;;18.90;46.80;;;;;;5039705;28;20177;-85
2022/04/24 09:10:12;;;;;;;3.88;1.60;;;19.00;45.50;;;;;;5005455;28;20193;-86
2022/04/24 09:12:39;;;;;;;7.72;1.98;;;19.00;46.40;;;;;;5036744;28;20178;-86
2022/04/24 09:15:07;;;;;;;9.00;1.77;;;19.10;46.80;;;;;;5037409;28;20210;-86
2022/04/24 09:17:39;;;;;;;6.50;2.25;;;19.10;47.80;;;;;;5039154;28;20181;-87
2022/04/24 09:20:24;;;;;;;9.90;1.92;;;19.10;47.80;;;;;;5024011;28;20190;-85
2022/04/24 09:23:01;;;;;;;2.25;1.70;;;19.00;47.70;;;;;;5021304;28;20244;-84
2022/04/24 09:25:38;;;;;;;4.03;1.60;;;19.00;47.10;;;;;;5038525;28;20165;-85
2022/04/24 09:28:04;;;;;;;5.47;1.48;;;19.00;47.20;;;;;;5054505;28;20573;-86
2022/04/24 09:30:35;;;;;;;4.72;1.63;;;19.00;48.20;;;;;;5037891;28;20220;-87
2022/04/24 09:33:02;;;;;;;7.20;2.13;;;19.00;47.70;;;;;;5037974;28;20185;-88
2022/04/24 09:35:33;;;;;;;6.03;1.90;;;19.00;47.30;;;;;;5004219;28;20260;-87
2022/04/24 09:38:19;;;;;;;5.57;1.80;;;19.10;47.00;;;;;;5027136;28;20181;-84
2022/04/24 09:40:50;;;;;;;4.43;1.30;;;19.00;46.90;;;;;;5060184;28;20572;-86
2022/04/24 09:43:20;;;;;;;3.75;1.83;;;19.00;46.80;;;;;;5042698;28;20173;-88
2022/04/24 09:45:53;;;;;;;13.23;2.00;;;19.00;46.90;;;;;;5057361;28;20189;-87
2022/04/24 09:48:22;;;;;;;3.20;1.60;;;19.00;46.80;;;;;;5041039;28;20189;-87
2022/04/24 09:50:49;;;;;;;4.35;1.90;;;19.00;46.90;;;;;;5037360;28;20220;-85
2022/04/24 09:53:19;;;;;;;7.00;1.85;;;19.10;46.70;;;;;;5037687;28;20189;-87
2022/04/24 09:55:50;;;;;;;5.03;1.83;;;19.10;46.90;;;;;;5020351;28;20213;-87
2022/04/24 09:58:24;;;;;;;4.60;1.80;;;19.10;47.10;;;;;;5021673;28;20181;-87
2022/04/24 10:00:52;;;;;;;3.88;1.75;;;19.10;47.20;;;;;;5036450;28;20482;-85
2022/04/24 10:03:19;;;;;;;3.53;1.70;;;19.10;47.80;;;;;;5052079;28;20205;-85
2022/04/24 10:05:49;;;;;;;3.33;2.00;;;19.10;48.00;;;;;;5037228;28;20185;-86
2022/04/24 10:08:32;;;;;;;5.32;1.80;;;19.10;48.10;;;;;;5036398;28;20846;-86
2022/04/24 10:11:05;;;;;;;3.85;1.60;;;19.00;48.50;;;;;;5020023;28;20212;-84
2022/04/24 10:13:35;;;;;;;3.75;1.95;;;19.00;47.90;;;;;;5036767;28;20189;-84
2022/04/24 10:16:19;;;;;;;5.60;1.80;;;19.10;47.10;;;;;;5036314;28;20218;-85
2022/04/24 10:19:19;;;;;;;3.22;1.60;;;19.10;47.50;;;;;;5052853;28;20189;-84
2022/04/24 10:22:04;;;;;;;2.85;1.88;;;19.10;47.60;;;;;;5035876;28;20275;-84
2022/04/24 10:24:42;;;;;;;5.15;1.70;;;19.10;47.90;;;;;;5052885;28;20181;-85
2022/04/24 10:27:11;;;;;;;3.03;1.80;;;19.10;47.40;;;;;;5020443;28;20522;-86
2022/04/24 10:29:49;;;;;;;3.70;1.65;;;19.10;48.20;;;;;;5023094;28;20288;-85
2022/04/24 10:32:27;;;;;;;2.22;1.80;;;19.10;47.80;;;;;;5019284;28;20260;-86
2022/04/24 10:34:54;;;;;;;4.88;1.83;;;19.00;48.00;;;;;;5035876;28;20225;-86
2022/04/24 10:37:30;;;;;;;3.47;1.80;;;19.10;47.50;;;;;;5019024;28;20545;-86
2022/04/24 10:39:58;;;;;;;3.90;1.80;;;19.10;47.50;;;;;;5019412;28;20269;-86
2022/04/24 10:42:39;;;;;;;3.95;1.83;;;19.00;47.50;;;;;;5035329;28;20273;-85
2022/04/24 10:45:09;;;;;;;3.80;2.10;;;19.10;46.70;;;;;;5036385;28;20197;-86
2022/04/24 10:47:52;;;;;;;5.82;1.95;;;19.00;47.00;;;;;;5019830;28;20182;-86
2022/04/24 10:50:19;;;;;;;3.50;1.67;;;19.00;47.10;;;;;;5036504;28;20221;-85
2022/04/24 10:52:47;;;;;;;3.67;1.77;;;19.00;47.60;;;;;;5036128;28;20209;-85
2022/04/24 10:55:15;;;;;;;4.68;1.92;;;19.00;47.30;;;;;;5037635;28;20324;-85
2022/04/24 10:57:44;;;;;;;3.72;1.77;;;19.10;46.60;;;;;;5058419;28;20185;-84
2022/04/24 11:00:19;;;;;;;4.55;2.00;;;19.10;46.20;;;;;;5055303;28;20150;-84
2022/04/24 11:02:47;;;;;;;2.17;1.73;;;19.10;46.80;;;;;;5039015;28;20593;-86
2022/04/24 11:05:15;;;;;;;4.50;1.83;;;19.20;46.50;;;;;;5055485;28;20200;-87
2022/04/24 11:07:41;;;;;;;3.28;1.98;;;19.00;47.20;;;;;;5038618;28;20170;-86
2022/04/24 11:10:09;;;;;;;6.45;1.83;;;19.10;47.70;;;;;;5056306;28;20166;-85
2022/04/24 11:12:35;;;;;;;5.28;1.85;;;19.00;47.00;;;;;;5055464;28;20249;-85
2022/04/24 11:15:03;;;;;;;3.05;1.80;;;19.10;47.20;;;;;;5038365;28;20652;-86
2022/04/24 11:17:29;;;;;;;3.03;2.00;;;19.10;46.80;;;;;;5055626;28;20212;-85
2022/04/24 11:19:59;;;;;;;3.22;2.10;;;19.10;47.50;;;;;;5054616;28;20166;-85
2022/04/24 11:22:25;;;;;;;4.97;2.13;;;19.00;48.30;;;;;;5056391;28;20157;-85
2022/04/24 11:24:54;;;;;;;3.42;1.80;;;19.10;47.00;;;;;;5054509;28;20240;-86
2022/04/24 11:27:20;;;;;;;2.47;1.88;;;19.00;47.80;;;;;;5054946;28;20162;-86
2022/04/24 11:29:46;;;;;;;3.03;1.90;;;19.00;48.50;;;;;;5056280;28;20154;-86
2022/04/24 11:32:13;;;;;;;3.28;2.20;;;19.00;48.20;;;;;;5054788;28;20165;-85
2022/04/24 11:34:39;;;;;;;3.28;1.80;;;19.00;47.50;;;;;;5038639;28;20652;-86
2022/04/24 11:37:05;;;;;;;2.58;2.00;;;19.00;47.60;;;;;;5054919;28;20212;-85
2022/04/24 11:39:31;;;;;;;4.15;2.10;;;19.10;47.60;;;;;;5017990;28;20178;-85
2022/04/24 11:42:01;;;;;;;3.67;1.77;;;19.00;48.50;;;;;;5034621;28;20605;-85
2022/04/24 11:50:24;;;;;;;2.15;1.90;;;18.90;48.30;;;;;;5034332;28;20186;-85
2022/04/24 11:52:36;;;;;;;2.67;2.03;;;18.90;47.70;;;;;;5034334;28;20600;-85
2022/04/24 11:55:05;;;;;;;2.97;1.90;;;18.90;48.00;;;;;;5034412;28;20186;-86
2022/04/24 11:57:30;;;;;;;5.25;2.00;;;19.00;48.20;;;;;;5034523;28;20159;-85
2022/04/24 11:59:56;;;;;;;4.38;2.30;;;19.00;47.40;;;;;;5034125;28;20152;-85
2022/04/24 12:02:24;;;;;;;4.72;2.00;;;19.00;47.80;;;;;;5034080;28;20498;-88
2022/04/24 12:04:50;;;;;;;2.22;1.90;;;19.00;47.10;;;;;;5034133;28;20162;-85
2022/04/24 12:07:16;;;;;;;3.22;1.60;;;19.00;47.60;;;;;;5033174;28;20178;-84
2022/04/24 12:09:42;;;;;;;2.38;1.60;;;18.90;46.20;;;;;;5034158;28;20155;-85
2022/04/24 12:12:13;;;;;;;3.35;2.03;;;19.00;46.10;;;;;;5034080;28;20167;-85
2022/04/24 12:14:40;;;;;;;3.38;1.98;;;19.00;46.60;;;;;;5034443;28;20201;-85
2022/04/24 12:17:08;;;;;;;3.13;1.70;;;19.00;45.90;;;;;;5033809;28;20189;-85
2022/04/24 12:19:34;;;;;;;3.35;2.20;;;19.00;45.90;;;;;;5034037;28;20598;-85
2022/04/24 12:22:09;;;;;;;3.72;2.10;;;19.00;45.80;;;;;;5033766;28;20193;-84
2022/04/24 12:24:41;;;;;;;7.47;2.45;;;19.00;45.70;;;;;;5033723;28;20245;-85
2022/04/24 12:27:09;;;;;;;7.07;2.00;;;19.00;46.00;;;;;;5033626;28;20549;-85
2022/04/24 12:29:44;;;;;;;2.47;1.83;;;19.00;45.80;;;;;;5033465;28;20179;-85
2022/04/24 12:32:13;;;;;;;7.20;2.33;;;19.00;46.40;;;;;;5033636;28;20182;-85
2022/04/24 12:34:40;;;;;;;4.00;1.90;;;19.00;46.90;;;;;;5033587;28;20607;-85
2022/04/24 12:37:05;;;;;;;3.78;2.03;;;19.00;45.60;;;;;;5033541;28;20166;-85
2022/04/24 12:39:32;;;;;;;3.60;2.45;;;19.00;45.30;;;;;;5033417;28;20169;-85
2022/04/24 12:42:17;;;;;;;6.30;2.30;;;19.00;46.00;;;;;;5033664;28;20605;-85
2022/04/24 12:44:45;;;;;;;5.57;2.28;;;19.10;45.30;;;;;;5047524;28;20195;-85
2022/04/24 12:47:14;;;;;;;4.50;2.10;;;19.00;45.70;;;;;;5050025;28;20233;-85
2022/04/24 12:49:40;;;;;;;5.97;2.33;;;19.00;45.30;;;;;;5032593;28;20663;-86
2022/04/24 12:52:08;;;;;;;4.93;2.28;;;19.00;45.00;;;;;;5033727;28;20212;-86
2022/04/24 12:54:36;;;;;;;4.28;2.33;;;19.00;44.90;;;;;;5049751;28;20233;-86
2022/04/24 12:57:05;;;;;;;3.55;2.30;;;18.90;44.90;;;;;;5050455;28;20182;-85